YIB weather

Atikokan Municipal Airport
Atikokan, Ontario, Canada

Public forecast

Using degrees Celsius for public forecast. Weather courtesy of forecast.io.

Closest aviation weather report (METAR) to Atikokan Municipal Airport

Closest report is Ely Municipal Airport, 57.5 nm (106.5 km) S. Retrieved 2020/07/14 06:15 UTC (44 minutes ago):

KELO 140615Z AUTO 16003KT 10SM VCTS CLR 16/16 A2979 RMK AO2 LTG DSNT NE AND SE

Closest aviation forecast (TAF) to Atikokan Municipal Airport

Closest forecast is Falls International Airport, 71.1 nm (131.6 km) W. Retrieved 2020/07/14 06:45 UTC (14 minutes ago):

TAF KINL 140543Z 1406/1506 22005KT P6SM BKN018 FM141100 00000KT P6SM BKN060 FM141600 24005KT P6SM BKN060